createdAt,value
2022-08-28T00:01:25.215Z,4.30
2022-08-28T00:03:51.840Z,3.33
2022-08-28T00:06:18.526Z,3.67
2022-08-28T00:08:45.098Z,4.43
2022-08-28T00:11:11.748Z,3.80
2022-08-28T00:13:38.441Z,4.38
2022-08-28T00:16:05.642Z,4.32
2022-08-28T00:18:34.240Z,3.90
2022-08-28T00:21:01.418Z,3.47
2022-08-28T00:23:40.293Z,3.72
2022-08-28T00:26:10.329Z,3.60
2022-08-28T00:28:37.126Z,3.60
2022-08-28T00:31:03.911Z,3.60
2022-08-28T00:33:34.479Z,3.72
2022-08-28T00:36:02.205Z,4.10
2022-08-28T00:38:29.663Z,3.97
2022-08-28T00:41:00.687Z,4.05
2022-08-28T00:43:36.911Z,3.53
2022-08-28T00:46:06.048Z,3.90
2022-08-28T00:48:34.021Z,3.90
2022-08-28T00:51:02.207Z,3.65
2022-08-28T00:53:32.798Z,3.80
2022-08-28T00:56:02.643Z,3.83
2022-08-28T00:58:31.237Z,3.38
2022-08-28T01:00:57.939Z,4.00
2022-08-28T01:03:25.114Z,3.58
2022-08-28T01:05:55.055Z,3.83
2022-08-28T01:08:21.756Z,4.13
2022-08-28T01:10:53.945Z,3.80
2022-08-28T01:13:20.921Z,3.63
2022-08-28T01:15:48.342Z,4.38
2022-08-28T01:18:16.131Z,3.90
2022-08-28T01:20:49.033Z,4.03
2022-08-28T01:23:25.200Z,3.70
2022-08-28T01:25:53.137Z,3.55
2022-08-28T01:28:20.048Z,3.47
2022-08-28T01:30:48.289Z,2.92
2022-08-28T01:33:15.026Z,2.65
2022-08-28T01:35:44.735Z,2.20
2022-08-28T01:38:11.720Z,2.10
2022-08-28T01:40:41.659Z,2.40
2022-08-28T01:43:12.535Z,1.92
2022-08-28T01:45:40.108Z,1.85
2022-08-28T01:48:07.402Z,2.47
2022-08-28T01:50:35.512Z,2.20
2022-08-28T01:53:02.746Z,1.80
2022-08-28T01:55:29.483Z,1.92
2022-08-28T01:57:56.299Z,1.95
2022-08-28T02:00:25.089Z,1.97
2022-08-28T02:02:51.652Z,1.83
2022-08-28T02:05:18.369Z,2.10
2022-08-28T02:07:44.944Z,2.33
2022-08-28T02:10:11.536Z,2.15
2022-08-28T02:12:38.235Z,2.23
2022-08-28T02:15:06.060Z,2.05
2022-08-28T02:17:34.046Z,2.15
2022-08-28T02:20:00.612Z,1.80
2022-08-28T02:22:27.401Z,2.53
2022-08-28T02:24:54.005Z,2.10
2022-08-28T02:27:20.716Z,2.25
2022-08-28T02:29:47.325Z,2.25
2022-08-28T02:32:13.956Z,2.45
2022-08-28T02:34:41.910Z,2.17
2022-08-28T02:37:08.469Z,1.90
2022-08-28T02:39:35.528Z,2.10
2022-08-28T02:42:02.208Z,2.38
2022-08-28T02:44:28.802Z,2.20
2022-08-28T02:46:55.487Z,2.25
2022-08-28T02:49:22.959Z,2.07
2022-08-28T02:51:51.032Z,2.25
2022-08-28T02:54:18.458Z,2.40
2022-08-28T02:56:45.188Z,2.65
2022-08-28T02:59:11.878Z,1.98
2022-08-28T03:01:38.628Z,2.00
2022-08-28T03:04:05.823Z,2.53
2022-08-28T03:06:33.032Z,2.80
2022-08-28T03:09:01.109Z,2.47
2022-08-28T03:11:28.189Z,2.10
2022-08-28T03:13:54.755Z,2.80
2022-08-28T03:16:21.338Z,3.13
2022-08-28T03:18:47.971Z,2.30
2022-08-28T03:21:14.610Z,2.60
2022-08-28T03:23:41.182Z,2.67
2022-08-28T03:26:11.528Z,2.53
2022-08-28T03:28:41.048Z,2.60
2022-08-28T03:31:08.543Z,2.40
2022-08-28T03:33:35.324Z,2.50
2022-08-28T03:36:04.607Z,2.60
2022-08-28T03:38:31.628Z,2.92
2022-08-28T03:40:58.216Z,2.70
2022-08-28T03:43:26.202Z,2.55
2022-08-28T03:45:56.367Z,3.08
2022-08-28T03:48:23.096Z,2.50
2022-08-28T03:50:50.271Z,2.50
2022-08-28T03:53:18.636Z,2.50
2022-08-28T03:55:45.226Z,2.75
2022-08-28T03:58:12.069Z,2.90
2022-08-28T04:00:47.318Z,2.42
2022-08-28T04:03:14.241Z,2.33
2022-08-28T04:05:41.891Z,2.70
2022-08-28T04:08:08.764Z,3.00
2022-08-28T04:10:35.656Z,2.65
2022-08-28T04:13:02.921Z,2.75
2022-08-28T04:15:29.761Z,3.03
2022-08-28T04:17:57.698Z,2.60
2022-08-28T04:20:24.386Z,2.78
2022-08-28T04:22:55.064Z,2.65
2022-08-28T04:25:22.473Z,3.00
2022-08-28T04:27:50.058Z,2.90
2022-08-28T04:30:17.462Z,2.77
2022-08-28T04:32:44.160Z,3.22
2022-08-28T04:35:13.345Z,2.78
2022-08-28T04:37:40.718Z,2.60
2022-08-28T04:40:09.082Z,3.00
2022-08-28T04:42:35.860Z,2.57
2022-08-28T04:45:02.701Z,3.03
2022-08-28T04:47:29.305Z,2.95
2022-08-28T04:49:55.931Z,2.70
2022-08-28T04:52:23.902Z,3.13
2022-08-28T04:54:50.444Z,3.28
2022-08-28T04:57:17.053Z,3.10
2022-08-28T04:59:43.720Z,3.20
2022-08-28T05:02:10.477Z,3.17
2022-08-28T05:04:37.244Z,3.10
2022-08-28T05:07:04.062Z,3.47
2022-08-28T05:09:32.114Z,3.00
2022-08-28T05:12:01.917Z,2.93
2022-08-28T05:14:28.549Z,3.15
2022-08-28T05:16:55.143Z,3.25
2022-08-28T05:19:22.036Z,3.53
2022-08-28T05:21:48.783Z,3.10
2022-08-28T05:24:15.553Z,2.90
2022-08-28T05:26:43.556Z,3.17
2022-08-28T05:29:10.642Z,3.28
2022-08-28T05:31:38.024Z,2.90
2022-08-28T05:34:05.149Z,2.90
2022-08-28T05:36:35.961Z,2.93
2022-08-28T05:39:07.011Z,2.77
2022-08-28T05:41:34.019Z,2.70
2022-08-28T05:44:05.561Z,3.40
2022-08-28T05:46:32.819Z,2.65
2022-08-28T05:48:59.419Z,2.97
2022-08-28T05:51:27.552Z,2.60
2022-08-28T05:53:54.880Z,3.15
2022-08-28T05:56:24.049Z,2.67
2022-08-28T05:58:51.075Z,2.80
2022-08-28T06:01:21.443Z,3.00
2022-08-28T06:03:53.063Z,2.97
2022-08-28T06:06:19.850Z,3.38
2022-08-28T06:08:56.339Z,3.10
2022-08-28T06:11:27.137Z,3.00
2022-08-28T06:13:58.782Z,2.90
2022-08-28T06:16:26.842Z,2.53
2022-08-28T06:18:53.624Z,2.77
2022-08-28T06:21:20.305Z,3.28
2022-08-28T06:23:46.883Z,3.30
2022-08-28T06:26:13.548Z,2.90
2022-08-28T06:28:40.143Z,2.65
2022-08-28T06:31:23.541Z,2.90
2022-08-28T06:33:52.315Z,3.47
2022-08-28T06:36:18.900Z,2.80
2022-08-28T06:38:45.462Z,2.85
2022-08-28T06:41:12.449Z,2.63
2022-08-28T06:43:39.190Z,3.25
2022-08-28T06:46:06.260Z,2.90
2022-08-28T06:48:33.132Z,2.83
2022-08-28T06:51:01.152Z,2.92
2022-08-28T06:53:29.987Z,2.88
2022-08-28T06:55:59.031Z,2.83
2022-08-28T06:58:26.132Z,2.73
2022-08-28T07:01:02.989Z,3.22
2022-08-28T07:03:29.813Z,2.85
2022-08-28T07:05:57.176Z,2.80
2022-08-28T07:08:25.488Z,3.10
2022-08-28T07:10:52.457Z,2.87
2022-08-28T07:13:19.186Z,2.80
2022-08-28T07:15:45.877Z,2.97
2022-08-28T07:18:12.661Z,2.90
2022-08-28T07:20:39.444Z,2.80
2022-08-28T07:23:06.073Z,3.13
2022-08-28T07:25:34.177Z,3.07
2022-08-28T07:28:00.891Z,2.97
2022-08-28T07:30:27.496Z,2.60
2022-08-28T07:32:54.087Z,2.60
2022-08-28T07:35:21.038Z,2.90
2022-08-28T07:37:47.667Z,3.10
2022-08-28T07:40:14.567Z,2.90
2022-08-28T07:42:42.570Z,3.20
2022-08-28T07:45:10.365Z,3.00
2022-08-28T07:47:36.951Z,3.05
2022-08-28T07:50:04.493Z,3.00
2022-08-28T07:52:31.083Z,2.65
2022-08-28T07:54:57.647Z,2.50
2022-08-28T07:57:24.364Z,3.17
2022-08-28T07:59:52.422Z,3.05
2022-08-28T08:02:19.060Z,3.17
2022-08-28T08:04:45.640Z,2.72
2022-08-28T08:07:12.224Z,3.20
2022-08-28T08:09:40.386Z,2.72
2022-08-28T08:12:10.406Z,3.33
2022-08-28T08:14:37.956Z,3.00
2022-08-28T08:17:07.306Z,3.10
2022-08-28T08:19:34.408Z,3.47
2022-08-28T08:22:01.113Z,3.00
2022-08-28T08:24:28.600Z,2.90
2022-08-28T08:27:00.067Z,2.70
2022-08-28T08:29:29.094Z,2.55
2022-08-28T08:32:00.416Z,3.00
2022-08-28T08:34:28.664Z,3.15
2022-08-28T08:36:55.357Z,3.28
2022-08-28T08:39:22.082Z,2.97
2022-08-28T08:41:51.555Z,3.10
2022-08-28T08:44:28.475Z,2.83
2022-08-28T08:47:13.263Z,2.97
2022-08-28T08:49:47.514Z,3.30
2022-08-28T08:52:42.908Z,2.90
2022-08-28T08:55:25.073Z,2.53
2022-08-28T08:57:56.818Z,2.58
2022-08-28T09:00:24.574Z,2.83
2022-08-28T09:02:58.840Z,2.95
2022-08-28T09:05:44.907Z,3.67
2022-08-28T09:08:18.792Z,3.07
2022-08-28T09:10:52.729Z,3.10
2022-08-28T09:13:25.945Z,3.05
2022-08-28T09:15:52.685Z,3.08
2022-08-28T09:18:25.855Z,3.45
2022-08-28T09:20:55.737Z,3.57
2022-08-28T09:23:23.510Z,3.28
2022-08-28T09:25:54.934Z,3.47
2022-08-28T09:28:26.073Z,3.30
2022-08-28T09:30:57.154Z,2.97
2022-08-28T09:33:33.562Z,3.30
2022-08-28T09:36:22.958Z,3.58
2022-08-28T09:39:04.806Z,3.08
2022-08-28T09:41:32.354Z,3.25
2022-08-28T09:43:58.989Z,3.45
2022-08-28T09:46:30.273Z,3.10
2022-08-28T09:49:09.157Z,3.17
2022-08-28T09:51:37.439Z,2.97
2022-08-28T09:54:11.650Z,2.85
2022-08-28T09:56:41.394Z,3.88
2022-08-28T09:59:10.116Z,2.83
2022-08-28T10:01:47.287Z,3.05
2022-08-28T10:04:27.978Z,2.88
2022-08-28T10:07:01.212Z,3.35
2022-08-28T10:09:32.386Z,3.00
2022-08-28T10:12:06.590Z,2.70
2022-08-28T10:14:46.001Z,3.17
2022-08-28T10:17:25.203Z,2.80
2022-08-28T10:20:02.214Z,2.70
2022-08-28T10:22:38.938Z,2.60
2022-08-28T10:25:18.641Z,3.10
2022-08-28T10:27:57.712Z,2.83
2022-08-28T10:30:25.267Z,2.83
2022-08-28T10:33:08.930Z,2.97
2022-08-28T10:35:44.052Z,2.83
2022-08-28T10:38:16.005Z,2.93
2022-08-28T10:40:53.789Z,2.63
2022-08-28T10:43:29.074Z,2.45
2022-08-28T10:46:00.991Z,2.90
2022-08-28T10:48:31.928Z,2.72
2022-08-28T10:51:02.762Z,2.10
2022-08-28T10:53:35.429Z,2.63
2022-08-28T10:56:06.564Z,2.13
2022-08-28T10:58:37.001Z,2.40
2022-08-28T11:01:08.358Z,2.60
2022-08-28T11:03:41.655Z,2.63
2022-08-28T11:06:17.744Z,2.10
2022-08-28T11:08:53.044Z,2.28
2022-08-28T11:11:42.221Z,2.10
2022-08-28T11:14:09.294Z,2.28
2022-08-28T11:16:40.363Z,2.60
2022-08-28T11:19:33.560Z,2.85
2022-08-28T11:22:07.791Z,2.35
2022-08-28T11:24:50.133Z,2.63
2022-08-28T11:27:23.646Z,2.65
2022-08-28T11:30:29.084Z,2.50
2022-08-28T11:33:02.367Z,2.42
2022-08-28T11:35:51.896Z,2.38
2022-08-28T11:38:54.858Z,2.42
2022-08-28T11:41:25.293Z,2.13
2022-08-28T11:44:18.471Z,2.33
2022-08-28T11:46:46.932Z,2.75
2022-08-28T11:49:39.333Z,2.58
2022-08-28T11:52:16.759Z,2.90
2022-08-28T11:54:51.332Z,2.25
2022-08-28T11:57:24.683Z,2.90
2022-08-28T12:00:07.084Z,2.72
2022-08-28T12:02:49.343Z,2.30
2022-08-28T12:05:49.188Z,2.28
2022-08-28T12:08:53.057Z,2.10
2022-08-28T12:11:51.231Z,2.13
2022-08-28T12:15:03.738Z,2.20
2022-08-28T12:17:49.680Z,2.28
2022-08-28T12:20:22.533Z,2.38
2022-08-28T12:22:52.090Z,2.90
2022-08-28T12:25:30.935Z,2.10
2022-08-28T12:28:03.101Z,2.22
2022-08-28T12:30:33.433Z,2.05
2022-08-28T12:33:11.537Z,2.33
2022-08-28T12:35:38.467Z,2.30
2022-08-28T12:38:06.833Z,2.50
2022-08-28T12:40:49.927Z,2.50
2022-08-28T12:43:32.119Z,2.70
2022-08-28T12:46:02.563Z,2.00
2022-08-28T12:48:33.214Z,1.80
2022-08-28T12:51:03.944Z,2.00
2022-08-28T12:53:39.355Z,2.08
2022-08-28T12:56:08.440Z,2.50
2022-08-28T12:58:37.601Z,2.47
2022-08-28T13:01:07.664Z,2.20
2022-08-28T13:03:42.470Z,2.47
2022-08-28T13:06:09.355Z,2.67
2022-08-28T13:08:37.534Z,2.08
2022-08-28T13:11:04.609Z,2.22
2022-08-28T13:13:37.015Z,2.20
2022-08-28T13:16:05.779Z,2.23
2022-08-28T13:18:46.408Z,2.20
2022-08-28T13:21:34.081Z,1.98
2022-08-28T13:24:26.847Z,2.20
2022-08-28T13:27:04.220Z,2.38
2022-08-28T13:29:31.150Z,2.13
2022-08-28T13:31:59.545Z,2.17
2022-08-28T13:34:29.274Z,2.47
2022-08-28T13:36:58.746Z,2.33
2022-08-28T13:39:27.595Z,2.45
2022-08-28T13:41:56.394Z,2.50
2022-08-28T13:44:33.631Z,2.33
2022-08-28T13:47:02.114Z,2.45
2022-08-28T13:49:30.145Z,2.47
2022-08-28T13:51:58.748Z,2.33
2022-08-28T13:54:25.504Z,2.07
2022-08-28T13:56:54.458Z,2.30
2022-08-28T13:59:21.300Z,2.33
2022-08-28T14:01:48.097Z,2.30
2022-08-28T14:04:15.011Z,2.60
2022-08-28T14:06:43.599Z,2.00
2022-08-28T14:09:10.357Z,2.10
2022-08-28T14:11:36.960Z,2.10
2022-08-28T14:14:03.638Z,1.95
2022-08-28T14:16:30.316Z,2.00
2022-08-28T14:18:56.945Z,1.90
2022-08-28T14:21:23.682Z,2.00
2022-08-28T14:23:51.807Z,2.33
2022-08-28T14:26:19.065Z,2.13
2022-08-28T14:28:45.661Z,2.47
2022-08-28T14:31:14.614Z,2.50
2022-08-28T14:33:41.799Z,2.05
2022-08-28T14:36:14.948Z,2.30
2022-08-28T14:38:41.510Z,1.90
2022-08-28T14:41:09.564Z,1.83
2022-08-28T14:43:36.266Z,2.30
2022-08-28T14:46:03.160Z,2.40
2022-08-28T14:48:29.776Z,1.85
2022-08-28T14:50:56.460Z,2.25
2022-08-28T14:53:23.062Z,2.30
2022-08-28T14:55:49.969Z,1.80
2022-08-28T14:58:19.222Z,2.10
2022-08-28T15:00:49.594Z,1.80
2022-08-28T15:03:16.898Z,2.30
2022-08-28T15:05:43.763Z,2.05
2022-08-28T15:08:13.230Z,1.97
2022-08-28T15:10:41.507Z,2.13
2022-08-28T15:13:09.763Z,2.20
2022-08-28T15:15:38.652Z,2.60
2022-08-28T15:18:06.059Z,2.42
2022-08-28T15:20:37.996Z,2.10
2022-08-28T15:23:04.713Z,2.33
2022-08-28T15:25:31.319Z,2.60
2022-08-28T15:27:57.917Z,2.10
2022-08-28T15:30:24.606Z,2.38
2022-08-28T15:32:52.579Z,2.20
2022-08-28T15:35:19.150Z,2.40
2022-08-28T15:37:45.750Z,2.28
2022-08-28T15:40:12.386Z,2.03
2022-08-28T15:42:39.001Z,2.08
2022-08-28T15:45:06.458Z,2.27
2022-08-28T15:47:33.024Z,2.13
2022-08-28T15:50:00.978Z,2.58
2022-08-28T15:52:27.591Z,2.15
2022-08-28T15:54:54.286Z,2.25
2022-08-28T15:57:21.031Z,1.70
2022-08-28T15:59:50.076Z,2.20
2022-08-28T16:02:18.417Z,2.40
2022-08-28T16:04:45.040Z,2.20
2022-08-28T16:07:13.137Z,2.40
2022-08-28T16:09:39.727Z,2.50
2022-08-28T16:12:06.626Z,2.40
2022-08-28T16:14:33.335Z,2.33
2022-08-28T16:16:59.978Z,2.45
2022-08-28T16:19:32.826Z,2.20
2022-08-28T16:21:59.525Z,2.67
2022-08-28T16:24:27.730Z,2.30
2022-08-28T16:26:54.305Z,2.42
2022-08-28T16:29:21.058Z,2.13
2022-08-28T16:31:48.647Z,2.35
2022-08-28T16:34:15.468Z,2.13
2022-08-28T16:36:46.231Z,2.40
2022-08-28T16:39:12.780Z,2.42
2022-08-28T16:41:40.744Z,2.08
2022-08-28T16:44:07.420Z,2.22
2022-08-28T16:46:34.224Z,2.30
2022-08-28T16:49:00.906Z,2.38
2022-08-28T16:51:27.493Z,2.10
2022-08-28T16:53:54.766Z,2.08
2022-08-28T16:56:22.458Z,1.90
2022-08-28T16:58:53.279Z,2.30
2022-08-28T17:01:20.785Z,2.20
2022-08-28T17:03:48.051Z,2.05
2022-08-28T17:06:18.233Z,2.20
2022-08-28T17:08:45.078Z,2.33
2022-08-28T17:11:12.155Z,2.40
2022-08-28T17:13:39.146Z,2.40
2022-08-28T17:16:07.761Z,2.03
2022-08-28T17:18:34.812Z,2.33
2022-08-28T17:21:01.520Z,2.15
2022-08-28T17:23:28.151Z,1.83
2022-08-28T17:25:54.756Z,2.10
2022-08-28T17:28:21.343Z,2.20
2022-08-28T17:30:48.047Z,2.15
2022-08-28T17:33:16.025Z,2.40
2022-08-28T17:35:42.585Z,1.90
2022-08-28T17:38:09.405Z,1.70
2022-08-28T17:40:36.009Z,2.28
2022-08-28T17:43:02.828Z,2.17
2022-08-28T17:45:29.678Z,1.95
2022-08-28T17:47:56.386Z,1.93
2022-08-28T17:50:24.347Z,2.10
2022-08-28T17:52:51.685Z,2.03
2022-08-28T17:55:18.908Z,1.88
2022-08-28T17:57:45.471Z,1.80
2022-08-28T18:00:15.742Z,2.40
2022-08-28T18:02:42.806Z,1.95
2022-08-28T18:05:12.213Z,2.30
2022-08-28T18:07:40.409Z,1.90
2022-08-28T18:10:08.402Z,2.15
2022-08-28T18:12:35.255Z,2.00
2022-08-28T18:15:01.884Z,2.17
2022-08-28T18:17:28.485Z,2.40
2022-08-28T18:19:55.069Z,1.70
2022-08-28T18:22:23.626Z,2.10
2022-08-28T18:24:53.837Z,1.97
2022-08-28T18:27:20.847Z,1.70
2022-08-28T18:29:47.660Z,1.77
2022-08-28T18:32:14.221Z,1.90
2022-08-28T18:34:41.005Z,2.03
2022-08-28T18:37:07.606Z,1.87
2022-08-28T18:39:34.190Z,2.10
2022-08-28T18:42:02.193Z,2.15
2022-08-28T18:44:28.827Z,1.85
2022-08-28T18:46:55.493Z,1.88
2022-08-28T18:49:22.267Z,1.80
2022-08-28T18:51:48.951Z,1.90
2022-08-28T18:54:21.082Z,2.00
2022-08-28T18:56:50.451Z,2.13
2022-08-28T18:59:18.666Z,1.92
2022-08-28T19:01:45.336Z,2.07
2022-08-28T19:04:12.109Z,2.10
2022-08-28T19:06:40.499Z,1.80
2022-08-28T19:09:07.215Z,1.92
2022-08-28T19:11:34.145Z,2.20
2022-08-28T19:14:03.658Z,1.97
2022-08-28T19:16:32.173Z,2.03
2022-08-28T19:18:58.959Z,1.90
2022-08-28T19:21:28.719Z,1.92
2022-08-28T19:23:56.375Z,2.35
2022-08-28T19:26:23.572Z,2.03
2022-08-28T19:28:50.257Z,2.00
2022-08-28T19:31:17.083Z,2.28
2022-08-28T19:33:45.145Z,2.20
2022-08-28T19:36:12.000Z,1.92
2022-08-28T19:38:38.773Z,1.73
2022-08-28T19:41:06.151Z,2.00
2022-08-28T19:43:43.086Z,2.15
2022-08-28T19:46:18.310Z,2.08
2022-08-28T19:48:48.699Z,2.35
2022-08-28T19:51:17.588Z,1.83
2022-08-28T19:53:51.274Z,2.20
2022-08-28T19:56:21.515Z,2.00
2022-08-28T19:58:48.201Z,2.00
2022-08-28T20:01:14.974Z,2.13
2022-08-28T20:03:41.726Z,2.00
2022-08-28T20:06:09.659Z,2.07
2022-08-28T20:08:36.265Z,1.80
2022-08-28T20:11:02.832Z,1.90
2022-08-28T20:13:29.642Z,2.00
2022-08-28T20:15:56.383Z,2.10
2022-08-28T20:18:23.261Z,2.37
2022-08-28T20:20:50.835Z,2.00
2022-08-28T20:23:18.823Z,1.92
2022-08-28T20:25:46.729Z,2.20
2022-08-28T20:28:13.806Z,2.25
2022-08-28T20:30:40.755Z,2.50
2022-08-28T20:33:07.423Z,2.10
2022-08-28T20:35:34.070Z,2.00
2022-08-28T20:38:00.670Z,2.15
2022-08-28T20:40:28.894Z,2.53
2022-08-28T20:42:55.700Z,2.53
2022-08-28T20:45:22.620Z,2.42
2022-08-28T20:47:49.248Z,2.10
2022-08-28T20:50:15.879Z,2.23
2022-08-28T20:52:42.477Z,1.90
2022-08-28T20:55:10.609Z,1.92
2022-08-28T20:57:39.224Z,2.03
2022-08-28T21:00:07.152Z,2.08
2022-08-28T21:02:33.804Z,2.00
2022-08-28T21:05:01.168Z,1.83
2022-08-28T21:07:28.159Z,2.00
2022-08-28T21:10:05.284Z,2.10
2022-08-28T21:12:34.931Z,2.25
2022-08-28T21:15:03.632Z,2.30
2022-08-28T21:17:30.895Z,2.17
2022-08-28T21:20:00.020Z,1.92
2022-08-28T21:22:26.678Z,2.40
2022-08-28T21:24:53.241Z,1.98
2022-08-28T21:27:19.908Z,1.70
2022-08-28T21:29:47.688Z,1.93
2022-08-28T21:32:15.743Z,2.17
2022-08-28T21:34:42.377Z,1.90
2022-08-28T21:37:08.973Z,2.03
2022-08-28T21:39:35.679Z,2.00
2022-08-28T21:42:02.360Z,1.90
2022-08-28T21:44:29.063Z,1.90
2022-08-28T21:46:55.664Z,1.83
2022-08-28T21:49:23.651Z,1.92
2022-08-28T21:51:50.827Z,1.92
2022-08-28T21:54:17.675Z,1.93
2022-08-28T21:56:44.254Z,1.80
2022-08-28T21:59:10.856Z,1.83
2022-08-28T22:01:37.563Z,2.15
2022-08-28T22:04:04.896Z,2.38
2022-08-28T22:06:33.287Z,2.05
2022-08-28T22:08:59.980Z,2.10
2022-08-28T22:11:26.583Z,1.80
2022-08-28T22:13:53.182Z,2.10
2022-08-28T22:16:19.965Z,2.10
2022-08-28T22:18:47.022Z,2.13
2022-08-28T22:21:15.359Z,2.10
2022-08-28T22:23:45.468Z,2.00
2022-08-28T22:26:15.082Z,1.70
2022-08-28T22:28:41.725Z,1.90
2022-08-28T22:31:08.542Z,2.17
2022-08-28T22:33:35.200Z,1.80
2022-08-28T22:36:02.550Z,2.20
2022-08-28T22:41:21.724Z,2.10
2022-08-28T22:43:51.817Z,2.35
2022-08-28T22:46:19.343Z,2.20
2022-08-28T22:48:46.045Z,1.85
2022-08-28T22:51:15.008Z,2.42
2022-08-28T22:53:42.863Z,1.83
2022-08-28T22:56:10.456Z,2.07
2022-08-28T22:58:39.256Z,2.35
2022-08-28T23:01:09.076Z,2.35
2022-08-28T23:03:36.404Z,2.10
2022-08-28T23:06:03.410Z,2.13
2022-08-28T23:08:33.909Z,2.40
2022-08-28T23:11:00.847Z,2.03
2022-08-28T23:13:28.094Z,1.92
2022-08-28T23:15:56.198Z,1.90
2022-08-28T23:18:23.005Z,1.95
2022-08-28T23:20:50.603Z,2.03
2022-08-28T23:23:18.330Z,2.20
2022-08-28T23:25:44.931Z,2.78
2022-08-28T23:28:11.666Z,2.30
2022-08-28T23:30:38.507Z,1.73
2022-08-28T23:33:08.442Z,2.17
2022-08-28T23:35:36.013Z,1.90
2022-08-28T23:38:03.641Z,2.13
2022-08-28T23:40:30.264Z,1.77
2022-08-28T23:42:57.073Z,2.33
2022-08-28T23:45:23.876Z,2.00
2022-08-28T23:47:50.920Z,1.92
2022-08-28T23:50:21.236Z,2.07
2022-08-28T23:52:47.917Z,1.98
2022-08-28T23:55:18.951Z,2.08
2022-08-28T23:57:45.968Z,2.00
